createdAt,value
2022-10-17T00:01:30.674Z,52.61
2022-10-17T00:03:57.177Z,52.52
2022-10-17T00:06:23.454Z,52.72
2022-10-17T00:08:49.969Z,52.77
2022-10-17T00:11:16.287Z,52.47
2022-10-17T00:13:42.579Z,53.66
2022-10-17T00:16:08.919Z,53.11
2022-10-17T00:18:35.159Z,52.83
2022-10-17T00:21:01.667Z,52.61
2022-10-17T00:23:28.132Z,52.78
2022-10-17T00:25:54.401Z,52.49
2022-10-17T00:28:20.740Z,53.06
2022-10-17T00:30:47.513Z,53.06
2022-10-17T00:33:13.858Z,52.79
2022-10-17T00:35:41.231Z,52.91
2022-10-17T00:38:08.385Z,52.69
2022-10-17T00:40:34.671Z,52.71
2022-10-17T00:43:01.159Z,52.89
2022-10-17T00:45:27.880Z,52.81
2022-10-17T00:47:54.138Z,52.81
2022-10-17T00:50:20.412Z,52.57
2022-10-17T00:52:46.763Z,52.66
2022-10-17T00:55:13.207Z,52.90
2022-10-17T00:57:39.482Z,52.68
2022-10-17T01:00:05.756Z,52.64
2022-10-17T01:02:32.030Z,52.69
2022-10-17T01:04:58.315Z,52.48
2022-10-17T01:07:24.930Z,52.67
2022-10-17T01:09:51.363Z,52.17
2022-10-17T01:12:17.651Z,52.89
2022-10-17T01:14:44.205Z,52.68
2022-10-17T01:17:10.502Z,52.39
2022-10-17T01:19:36.870Z,52.76
2022-10-17T01:22:03.287Z,52.73
2022-10-17T01:24:29.581Z,52.14
2022-10-17T01:26:55.920Z,52.88
2022-10-17T01:29:22.264Z,52.30
2022-10-17T01:31:48.596Z,52.52
2022-10-17T01:34:14.843Z,52.41
2022-10-17T01:36:42.208Z,52.17
2022-10-17T01:39:08.597Z,52.59
2022-10-17T01:41:34.872Z,52.38
2022-10-17T01:44:01.573Z,52.30
2022-10-17T01:46:27.878Z,52.52
2022-10-17T01:48:54.181Z,52.74
2022-10-17T01:51:20.599Z,53.23
2022-10-17T01:53:47.123Z,52.91
2022-10-17T01:56:13.412Z,53.36
2022-10-17T01:58:39.871Z,53.21
2022-10-17T02:01:06.322Z,53.06
2022-10-17T02:03:32.704Z,53.07
2022-10-17T02:05:59.346Z,52.70
2022-10-17T02:08:25.616Z,52.58
2022-10-17T02:10:51.896Z,52.91
2022-10-17T02:13:18.549Z,52.89
2022-10-17T02:15:44.794Z,53.02
2022-10-17T02:18:11.156Z,52.92
2022-10-17T02:20:37.717Z,52.84
2022-10-17T02:23:04.151Z,52.54
2022-10-17T02:25:30.415Z,52.53
2022-10-17T02:27:56.764Z,52.73
2022-10-17T02:30:23.051Z,52.79
2022-10-17T02:32:50.362Z,52.73
2022-10-17T02:35:17.066Z,52.65
2022-10-17T02:37:43.590Z,52.79
2022-10-17T02:40:09.845Z,53.00
2022-10-17T02:42:36.289Z,52.83
2022-10-17T02:45:02.573Z,52.67
2022-10-17T02:47:28.969Z,52.91
2022-10-17T02:49:55.259Z,52.64
2022-10-17T02:52:21.577Z,52.42
2022-10-17T02:54:47.861Z,52.81
2022-10-17T02:57:14.550Z,52.49
2022-10-17T02:59:41.035Z,52.90
2022-10-17T03:02:07.311Z,52.44
2022-10-17T03:04:33.979Z,52.76
2022-10-17T03:07:00.309Z,52.96
2022-10-17T03:09:26.603Z,52.44
2022-10-17T03:11:53.761Z,52.47
2022-10-17T03:14:20.194Z,53.30
2022-10-17T03:16:46.463Z,53.15
2022-10-17T03:19:13.368Z,53.16
2022-10-17T03:21:39.605Z,52.69
2022-10-17T03:24:05.940Z,53.10
2022-10-17T03:26:32.800Z,53.04
2022-10-17T03:28:59.130Z,52.45
2022-10-17T03:31:25.459Z,52.98
2022-10-17T03:33:51.807Z,52.51
2022-10-17T03:36:18.170Z,52.91
2022-10-17T03:38:44.531Z,52.57
2022-10-17T03:41:10.861Z,52.75
2022-10-17T03:43:37.380Z,53.22
2022-10-17T03:46:03.650Z,53.11
2022-10-17T03:48:30.010Z,53.13
2022-10-17T03:50:56.299Z,52.70
2022-10-17T03:53:23.270Z,52.95
2022-10-17T03:55:49.776Z,53.02
2022-10-17T03:58:16.264Z,51.86
2022-10-17T04:00:42.556Z,53.21
2022-10-17T04:03:10.863Z,53.01
2022-10-17T04:05:40.228Z,52.98
2022-10-17T04:08:06.473Z,52.93
2022-10-17T04:10:32.888Z,53.13
2022-10-17T04:12:59.399Z,53.11
2022-10-17T04:15:25.745Z,53.05
2022-10-17T04:17:52.312Z,52.82
2022-10-17T04:20:18.618Z,52.85
2022-10-17T04:22:44.881Z,52.89
2022-10-17T04:25:11.635Z,53.25
2022-10-17T04:27:37.938Z,53.15
2022-10-17T04:30:04.382Z,53.00
2022-10-17T04:32:31.339Z,52.87
2022-10-17T04:34:58.128Z,52.79
2022-10-17T04:37:24.466Z,52.80
2022-10-17T04:39:50.775Z,52.92
2022-10-17T04:42:17.050Z,53.07
2022-10-17T04:44:43.380Z,53.02
2022-10-17T04:47:09.913Z,52.92
2022-10-17T04:49:36.254Z,52.77
2022-10-17T04:52:02.643Z,52.64
2022-10-17T04:54:29.125Z,52.95
2022-10-17T04:56:55.384Z,52.83
2022-10-17T04:59:21.646Z,53.12
2022-10-17T05:01:47.929Z,53.37
2022-10-17T05:04:14.288Z,53.27
2022-10-17T05:06:40.591Z,53.44
2022-10-17T05:09:07.003Z,53.63
2022-10-17T05:11:33.264Z,53.54
2022-10-17T05:13:59.581Z,53.44
2022-10-17T05:16:25.961Z,53.29
2022-10-17T05:18:53.049Z,53.59
2022-10-17T05:21:19.608Z,53.55
2022-10-17T05:23:46.184Z,53.06
2022-10-17T05:26:12.631Z,53.32
2022-10-17T05:28:39.944Z,53.58
2022-10-17T05:31:06.639Z,53.48
2022-10-17T05:33:34.950Z,53.44
2022-10-17T05:36:01.285Z,53.23
2022-10-17T05:38:27.742Z,53.43
2022-10-17T05:40:54.020Z,53.45
2022-10-17T05:43:20.318Z,53.56
2022-10-17T05:45:46.623Z,53.54
2022-10-17T05:48:12.911Z,54.21
2022-10-17T05:50:41.225Z,54.38
2022-10-17T05:53:08.091Z,54.69
2022-10-17T05:55:34.372Z,54.33
2022-10-17T05:58:00.660Z,54.52
2022-10-17T06:00:27.100Z,53.75
2022-10-17T06:02:55.508Z,54.35
2022-10-17T06:05:21.822Z,53.73
2022-10-17T06:07:48.289Z,53.83
2022-10-17T06:10:14.756Z,54.06
2022-10-17T06:12:40.992Z,52.77
2022-10-17T06:15:07.537Z,52.05
2022-10-17T06:17:34.049Z,51.72
2022-10-17T06:20:00.879Z,52.66
2022-10-17T06:22:27.670Z,52.59
2022-10-17T06:24:54.361Z,52.57
2022-10-17T06:27:20.820Z,52.58
2022-10-17T06:29:48.503Z,52.58
2022-10-17T06:32:15.287Z,53.08
2022-10-17T06:34:41.715Z,52.79
2022-10-17T06:37:08.522Z,53.40
2022-10-17T06:39:34.879Z,53.86
2022-10-17T06:42:01.352Z,53.82
2022-10-17T06:44:28.857Z,54.01
2022-10-17T06:46:55.546Z,54.83
2022-10-17T06:49:21.815Z,54.89
2022-10-17T06:51:48.128Z,54.58
2022-10-17T06:54:14.608Z,54.78
2022-10-17T06:56:40.881Z,55.37
2022-10-17T06:59:07.375Z,54.80
2022-10-17T07:01:34.095Z,55.61
2022-10-17T07:04:00.379Z,55.41
2022-10-17T07:06:26.787Z,55.32
2022-10-17T07:08:53.300Z,55.05
2022-10-17T07:11:19.539Z,55.12
2022-10-17T07:13:45.902Z,54.92
2022-10-17T07:16:12.180Z,55.15
2022-10-17T07:18:38.516Z,55.41
2022-10-17T07:21:05.217Z,55.54
2022-10-17T07:23:31.675Z,55.06
2022-10-17T07:25:58.023Z,54.86
2022-10-17T07:28:24.528Z,55.10
2022-10-17T07:30:53.653Z,55.02
2022-10-17T07:33:20.919Z,54.26
2022-10-17T07:35:47.286Z,54.32
2022-10-17T07:38:13.751Z,54.54
2022-10-17T07:40:40.035Z,54.32
2022-10-17T07:43:06.527Z,54.35
2022-10-17T07:45:32.825Z,54.85
2022-10-17T07:47:59.130Z,54.59
2022-10-17T07:50:25.685Z,54.55
2022-10-17T07:52:51.981Z,53.90
2022-10-17T07:55:18.303Z,54.30
2022-10-17T07:57:44.821Z,54.25
2022-10-17T08:00:11.354Z,54.15
2022-10-17T08:02:40.529Z,54.18
2022-10-17T08:05:06.899Z,54.76
2022-10-17T08:07:33.343Z,54.48
2022-10-17T08:10:00.352Z,54.91
2022-10-17T08:12:27.894Z,55.01
2022-10-17T08:14:54.474Z,54.78
2022-10-17T08:17:20.972Z,53.60
2022-10-17T08:19:47.551Z,54.57
2022-10-17T08:22:16.116Z,54.08
2022-10-17T08:24:42.456Z,53.38
2022-10-17T08:27:08.891Z,53.54
2022-10-17T08:29:35.169Z,53.28
2022-10-17T08:32:02.460Z,52.76
2022-10-17T08:34:30.265Z,52.10
2022-10-17T08:36:57.030Z,52.79
2022-10-17T08:39:23.334Z,52.92
2022-10-17T08:41:49.646Z,52.84
2022-10-17T08:44:16.106Z,52.22
2022-10-17T08:46:42.670Z,51.46
2022-10-17T08:49:12.014Z,52.32
2022-10-17T08:51:38.530Z,52.17
2022-10-17T08:54:04.801Z,52.42
2022-10-17T08:56:49.607Z,51.80
2022-10-17T08:59:16.088Z,52.14
2022-10-17T09:01:42.779Z,52.03
2022-10-17T09:04:10.059Z,51.91
2022-10-17T09:06:36.341Z,52.42
2022-10-17T09:09:02.687Z,52.58
2022-10-17T09:11:29.103Z,52.32
2022-10-17T09:13:55.510Z,52.65
2022-10-17T09:16:22.544Z,52.65
2022-10-17T09:18:48.849Z,52.72
2022-10-17T09:21:15.153Z,52.56
2022-10-17T09:23:42.626Z,52.99
2022-10-17T09:26:09.314Z,52.73
2022-10-17T09:28:36.865Z,52.42
2022-10-17T09:31:09.593Z,52.42
2022-10-17T09:33:53.221Z,52.41
2022-10-17T09:36:21.170Z,52.96
2022-10-17T09:38:47.453Z,52.41
2022-10-17T09:41:39.193Z,52.74
2022-10-17T09:44:00.216Z,53.40
2022-10-17T09:46:26.743Z,52.51
2022-10-17T09:48:53.486Z,53.12
2022-10-17T09:51:25.864Z,53.10
2022-10-17T09:53:52.678Z,52.28
2022-10-17T09:56:19.107Z,52.61
2022-10-17T09:58:45.428Z,52.66
2022-10-17T10:01:12.263Z,52.56
2022-10-17T10:03:39.698Z,52.78
2022-10-17T10:06:06.021Z,52.92
2022-10-17T10:08:32.280Z,52.01
2022-10-17T10:10:58.534Z,52.03
2022-10-17T10:13:24.858Z,51.48
2022-10-17T10:15:51.098Z,51.73
2022-10-17T10:18:17.375Z,51.53
2022-10-17T10:20:43.872Z,51.87
2022-10-17T10:23:10.143Z,51.85
2022-10-17T10:25:36.398Z,51.57
2022-10-17T10:28:02.701Z,51.54
2022-10-17T10:30:29.080Z,51.57
2022-10-17T10:32:55.346Z,51.54
2022-10-17T10:35:21.753Z,51.45
2022-10-17T10:37:48.012Z,51.29
2022-10-17T10:40:14.258Z,51.32
2022-10-17T10:42:40.626Z,51.28
2022-10-17T10:45:09.308Z,51.52
2022-10-17T10:47:39.331Z,51.11
2022-10-17T10:50:05.623Z,50.72
2022-10-17T10:52:32.045Z,50.69
2022-10-17T10:54:58.345Z,50.72
2022-10-17T10:57:26.482Z,50.17
2022-10-17T10:59:53.022Z,50.17
2022-10-17T11:02:19.873Z,50.08
2022-10-17T11:04:46.477Z,49.92
2022-10-17T11:07:13.250Z,49.63
2022-10-17T11:09:39.507Z,49.45
2022-10-17T11:12:05.872Z,49.69
2022-10-17T11:14:32.186Z,49.85
2022-10-17T11:16:58.640Z,49.38
2022-10-17T11:19:25.232Z,49.53
2022-10-17T11:21:51.620Z,48.86
2022-10-17T11:24:17.890Z,49.05
2022-10-17T11:26:44.475Z,49.00
2022-10-17T11:29:10.910Z,48.95
2022-10-17T11:31:37.437Z,48.80
2022-10-17T11:34:04.014Z,48.56
2022-10-17T11:36:30.292Z,48.88
2022-10-17T11:38:56.579Z,48.47
2022-10-17T11:41:22.891Z,48.32
2022-10-17T11:43:49.155Z,48.28
2022-10-17T11:46:15.421Z,47.63
2022-10-17T11:48:42.222Z,48.40
2022-10-17T11:53:55.197Z,47.88
2022-10-17T11:56:21.893Z,47.57
2022-10-17T11:58:50.382Z,46.30
2022-10-17T12:01:17.063Z,46.40
2022-10-17T12:03:44.421Z,46.37
2022-10-17T12:06:10.704Z,45.76
2022-10-17T12:08:37.443Z,46.78
2022-10-17T12:11:03.705Z,46.98
2022-10-17T12:13:30.102Z,46.55
2022-10-17T12:15:56.680Z,46.08
2022-10-17T12:18:22.959Z,45.51
2022-10-17T12:20:51.275Z,46.23
2022-10-17T12:23:17.605Z,45.67
2022-10-17T12:25:43.875Z,44.98
2022-10-17T12:28:10.122Z,45.48
2022-10-17T12:30:36.462Z,45.17
2022-10-17T12:33:07.477Z,44.87
2022-10-17T12:35:34.370Z,45.00
2022-10-17T12:38:00.893Z,44.70
2022-10-17T12:40:27.156Z,44.31
2022-10-17T12:42:53.479Z,44.35
2022-10-17T12:45:20.114Z,44.14
2022-10-17T12:47:46.367Z,44.46
2022-10-17T12:50:13.088Z,43.31
2022-10-17T12:52:39.661Z,43.43
2022-10-17T12:55:13.925Z,42.83
2022-10-17T12:57:40.867Z,43.14
2022-10-17T13:00:07.137Z,42.77
2022-10-17T13:02:34.426Z,42.53
2022-10-17T13:05:00.971Z,42.38
2022-10-17T13:07:27.653Z,41.56
2022-10-17T13:09:54.190Z,42.20
2022-10-17T13:12:20.506Z,41.09
2022-10-17T13:14:46.975Z,42.33
2022-10-17T13:17:13.484Z,41.24
2022-10-17T13:19:39.877Z,41.65
2022-10-17T13:22:07.264Z,40.83
2022-10-17T13:24:33.943Z,41.33
2022-10-17T13:27:00.282Z,40.93
2022-10-17T13:29:26.531Z,41.11
2022-10-17T13:31:53.351Z,40.12
2022-10-17T13:34:19.735Z,40.21
2022-10-17T13:36:48.731Z,40.39
2022-10-17T13:39:17.178Z,39.63
2022-10-17T13:41:46.481Z,39.87
2022-10-17T13:44:12.819Z,40.20
2022-10-17T13:46:39.875Z,40.57
2022-10-17T13:49:06.439Z,39.65
2022-10-17T13:51:32.808Z,39.66
2022-10-17T13:53:59.174Z,39.08
2022-10-17T13:56:29.923Z,39.49
2022-10-17T13:58:56.592Z,38.89
2022-10-17T14:01:22.897Z,38.72
2022-10-17T14:03:57.046Z,38.67
2022-10-17T14:06:28.731Z,38.13
2022-10-17T14:08:55.393Z,39.17
2022-10-17T14:11:23.861Z,38.66
2022-10-17T14:13:50.481Z,38.97
2022-10-17T14:16:17.178Z,38.20
2022-10-17T14:18:43.768Z,38.05
2022-10-17T14:23:59.724Z,39.19
2022-10-17T14:26:26.155Z,38.35
2022-10-17T14:28:52.484Z,38.86
2022-10-17T14:31:19.114Z,38.25
2022-10-17T14:33:49.744Z,37.54
2022-10-17T14:36:17.580Z,36.89
2022-10-17T14:38:44.197Z,37.69
2022-10-17T14:41:37.789Z,37.65
2022-10-17T14:43:57.079Z,37.39
2022-10-17T14:46:23.380Z,37.30
2022-10-17T14:48:49.726Z,37.16
2022-10-17T14:51:16.332Z,37.05
2022-10-17T14:53:42.692Z,37.25
2022-10-17T14:56:09.076Z,37.18
2022-10-17T14:58:35.587Z,37.36
2022-10-17T15:01:01.938Z,37.46
2022-10-17T15:03:28.551Z,37.45
2022-10-17T15:05:55.067Z,37.95
2022-10-17T15:08:21.387Z,37.15
2022-10-17T15:10:47.671Z,36.69
2022-10-17T15:13:27.634Z,36.92
2022-10-17T15:15:54.694Z,36.63
2022-10-17T15:18:21.216Z,36.58
2022-10-17T15:20:50.097Z,37.29
2022-10-17T15:23:23.373Z,37.44
2022-10-17T15:25:49.620Z,37.04
2022-10-17T15:28:16.101Z,36.69
2022-10-17T15:30:42.485Z,37.03
2022-10-17T15:33:09.380Z,37.04
2022-10-17T15:35:35.624Z,37.75
2022-10-17T15:38:01.978Z,37.63
2022-10-17T15:40:28.362Z,36.24
2022-10-17T15:42:54.647Z,36.94
2022-10-17T15:45:21.295Z,36.28
2022-10-17T15:47:47.937Z,36.87
2022-10-17T15:50:14.241Z,36.74
2022-10-17T15:52:41.058Z,37.93
2022-10-17T15:55:07.319Z,37.24
2022-10-17T15:57:33.894Z,37.88
2022-10-17T16:00:00.484Z,38.06
2022-10-17T16:02:26.812Z,37.05
2022-10-17T16:04:53.064Z,37.29
2022-10-17T16:07:20.468Z,36.77
2022-10-17T16:09:46.765Z,38.42
2022-10-17T16:12:13.093Z,37.65
2022-10-17T16:14:39.629Z,37.21
2022-10-17T16:17:05.917Z,36.52
2022-10-17T16:19:32.192Z,37.94
2022-10-17T16:22:00.839Z,37.18
2022-10-17T16:24:30.513Z,36.81
2022-10-17T16:26:56.835Z,36.03
2022-10-17T16:29:23.591Z,35.65
2022-10-17T16:31:50.889Z,34.81
2022-10-17T16:34:17.160Z,36.20
2022-10-17T16:36:43.761Z,35.12
2022-10-17T16:39:10.031Z,36.12
2022-10-17T16:41:36.308Z,35.93
2022-10-17T16:44:02.633Z,35.47
2022-10-17T16:46:29.135Z,37.24
2022-10-17T16:48:55.407Z,36.81
2022-10-17T16:51:22.312Z,35.76
2022-10-17T16:53:50.928Z,37.68
2022-10-17T16:56:17.188Z,36.76
2022-10-17T16:58:43.775Z,35.06
2022-10-17T17:01:10.168Z,37.09
2022-10-17T17:03:36.605Z,36.92
2022-10-17T17:06:03.256Z,36.72
2022-10-17T17:08:29.525Z,36.41
2022-10-17T17:10:55.866Z,36.29
2022-10-17T17:13:22.472Z,37.03
2022-10-17T17:15:49.838Z,35.23
2022-10-17T17:18:16.321Z,36.77
2022-10-17T17:20:43.214Z,36.09
2022-10-17T17:23:13.703Z,35.67
2022-10-17T17:25:43.263Z,36.74
2022-10-17T17:28:11.234Z,36.41
2022-10-17T17:30:37.960Z,36.16
2022-10-17T17:33:04.309Z,36.65
2022-10-17T17:35:31.408Z,37.02
2022-10-17T17:37:58.119Z,37.28
2022-10-17T17:40:25.010Z,36.41
2022-10-17T17:42:53.164Z,36.73
2022-10-17T17:45:23.877Z,36.71
2022-10-17T17:47:50.506Z,37.31
2022-10-17T17:50:17.047Z,37.07
2022-10-17T17:52:44.514Z,36.96
2022-10-17T17:55:11.766Z,36.68
2022-10-17T17:57:38.399Z,37.44
2022-10-17T18:00:05.742Z,37.91
2022-10-17T18:02:32.281Z,37.15
2022-10-17T18:04:59.039Z,37.83
2022-10-17T18:07:25.360Z,37.97
2022-10-17T18:09:51.726Z,37.15
2022-10-17T18:12:18.733Z,37.97
2022-10-17T18:14:45.917Z,37.81
2022-10-17T18:17:12.879Z,38.40
2022-10-17T18:19:39.988Z,38.22
2022-10-17T18:22:07.005Z,38.30
2022-10-17T18:24:33.831Z,38.99
2022-10-17T18:27:00.764Z,38.63
2022-10-17T18:29:31.299Z,38.52
2022-10-17T18:31:58.557Z,39.02
2022-10-17T18:34:25.430Z,39.62
2022-10-17T18:36:52.343Z,39.54
2022-10-17T18:39:19.001Z,39.43
2022-10-17T18:41:45.837Z,39.60
2022-10-17T18:44:15.329Z,39.58
2022-10-17T18:46:41.820Z,39.13
2022-10-17T18:49:11.373Z,39.96
2022-10-17T18:51:38.232Z,39.66
2022-10-17T18:54:07.026Z,39.08
2022-10-17T18:56:33.458Z,40.33
2022-10-17T18:59:00.839Z,40.09
2022-10-17T19:01:27.301Z,40.42
2022-10-17T19:03:54.583Z,39.21
2022-10-17T19:06:20.948Z,40.41
2022-10-17T19:08:47.512Z,39.83
2022-10-17T19:11:17.516Z,39.64
2022-10-17T19:16:16.364Z,40.22
2022-10-17T19:18:46.472Z,39.72
2022-10-17T19:21:12.840Z,40.79
2022-10-17T19:23:39.249Z,40.34
2022-10-17T19:26:05.675Z,40.13
2022-10-17T19:28:32.117Z,40.69
2022-10-17T19:30:58.432Z,40.18
2022-10-17T19:33:25.626Z,40.82
2022-10-17T19:35:56.004Z,40.74
2022-10-17T19:38:27.660Z,40.82
2022-10-17T19:40:54.011Z,40.72
2022-10-17T19:43:20.289Z,40.84
2022-10-17T19:45:46.768Z,40.63
2022-10-17T19:48:13.100Z,40.31
2022-10-17T19:50:41.339Z,40.42
2022-10-17T19:53:07.831Z,40.72
2022-10-17T19:55:34.097Z,40.63
2022-10-17T19:58:00.842Z,41.51
2022-10-17T20:00:27.895Z,40.85
2022-10-17T20:02:54.449Z,40.60
2022-10-17T20:05:25.908Z,41.24
2022-10-17T20:07:53.788Z,40.93
2022-10-17T20:10:20.571Z,41.12
2022-10-17T20:12:46.914Z,40.89
2022-10-17T20:15:13.391Z,40.99
2022-10-17T20:17:39.704Z,41.39
2022-10-17T20:20:08.606Z,41.39
2022-10-17T20:22:35.807Z,41.72
2022-10-17T20:25:02.278Z,41.28
2022-10-17T20:27:29.735Z,41.42
2022-10-17T20:29:56.279Z,41.66
2022-10-17T20:32:22.575Z,41.49
2022-10-17T20:34:48.858Z,40.91
2022-10-17T20:37:15.451Z,41.65
2022-10-17T20:39:42.741Z,41.78
2022-10-17T20:42:09.040Z,42.27
2022-10-17T20:44:35.393Z,41.64
2022-10-17T20:47:02.812Z,42.06
2022-10-17T20:49:29.243Z,42.43
2022-10-17T20:51:56.819Z,42.62
2022-10-17T20:54:23.102Z,42.73
2022-10-17T20:56:49.375Z,42.20
2022-10-17T20:59:15.948Z,42.58
2022-10-17T21:01:42.332Z,42.59
2022-10-17T21:06:55.189Z,43.08
2022-10-17T21:09:21.720Z,42.71
2022-10-17T21:11:49.178Z,42.45
2022-10-17T21:14:15.630Z,42.25
2022-10-17T21:16:41.877Z,42.61
2022-10-17T21:19:08.263Z,42.18
2022-10-17T21:21:37.168Z,42.70
2022-10-17T21:24:03.498Z,43.56
2022-10-17T21:26:32.217Z,43.79
2022-10-17T21:28:58.899Z,43.40
2022-10-17T21:31:25.271Z,43.82
2022-10-17T21:33:51.589Z,43.34
2022-10-17T21:36:18.017Z,42.94
2022-10-17T21:38:45.305Z,43.12
2022-10-17T21:41:11.643Z,43.07
2022-10-17T21:43:38.099Z,43.15
2022-10-17T21:46:04.398Z,43.05
2022-10-17T21:48:30.693Z,43.06
2022-10-17T21:50:58.102Z,43.12
2022-10-17T21:53:25.343Z,42.67
2022-10-17T21:55:51.742Z,42.99
2022-10-17T21:58:18.322Z,43.27
2022-10-17T22:00:44.623Z,43.16
2022-10-17T22:03:10.915Z,42.57
2022-10-17T22:05:37.802Z,43.37
2022-10-17T22:08:06.912Z,43.73
2022-10-17T22:10:33.219Z,43.84
2022-10-17T22:12:59.601Z,43.28
2022-10-17T22:15:27.075Z,43.75
2022-10-17T22:17:53.379Z,43.33
2022-10-17T22:20:19.917Z,43.24
2022-10-17T22:22:46.255Z,43.62
2022-10-17T22:25:12.555Z,43.95
2022-10-17T22:27:39.174Z,43.91
2022-10-17T22:30:05.457Z,43.96
2022-10-17T22:32:31.771Z,43.87
2022-10-17T22:34:58.724Z,43.75
2022-10-17T22:37:26.146Z,43.66
2022-10-17T22:39:52.429Z,43.97
2022-10-17T22:44:48.691Z,44.55
2022-10-17T22:47:15.067Z,44.75
2022-10-17T22:49:44.041Z,44.50
2022-10-17T22:52:10.359Z,44.69
2022-10-17T22:54:39.816Z,44.52
2022-10-17T22:57:06.223Z,44.29
2022-10-17T22:59:35.461Z,44.68
2022-10-17T23:02:01.857Z,44.34
2022-10-17T23:04:28.654Z,45.00
2022-10-17T23:06:55.491Z,45.18
2022-10-17T23:09:21.802Z,44.88
2022-10-17T23:11:50.932Z,44.44
2022-10-17T23:14:17.389Z,45.08
2022-10-17T23:16:43.666Z,45.22
2022-10-17T23:19:10.087Z,45.15
2022-10-17T23:21:36.611Z,45.45
2022-10-17T23:24:02.921Z,45.06
2022-10-17T23:26:29.542Z,45.54
2022-10-17T23:28:55.904Z,45.31
2022-10-17T23:31:22.492Z,45.24
2022-10-17T23:33:50.188Z,45.74
2022-10-17T23:36:16.470Z,45.52
2022-10-17T23:38:42.795Z,45.54
2022-10-17T23:41:09.381Z,45.55
2022-10-17T23:43:35.662Z,45.69
2022-10-17T23:46:02.093Z,45.70
2022-10-17T23:48:28.597Z,45.07
2022-10-17T23:50:54.932Z,45.56
2022-10-17T23:53:21.354Z,45.05
2022-10-17T23:55:47.755Z,45.04
2022-10-17T23:58:16.828Z,45.40
